sensor_id;sensor_type;location;lat;lon;timestamp;pressure;altitude;pressure_sealevel;temperature;humidity
12963;BME280;6546;49.882;8.666;2022-09-09T00:00:19;99359.75;;;18.83;80.71
12963;BME280;6546;49.882;8.666;2022-09-09T00:02:53;99352.81;;;18.82;79.18
12963;BME280;6546;49.882;8.666;2022-09-09T00:05:27;99351.88;;;18.83;78.34
12963;BME280;6546;49.882;8.666;2022-09-09T00:07:59;99346.78;;;18.80;80.34
12963;BME280;6546;49.882;8.666;2022-09-09T00:10:28;99350.31;;;18.79;79.60
12963;BME280;6546;49.882;8.666;2022-09-09T00:13:01;99345.75;;;18.84;78.96
12963;BME280;6546;49.882;8.666;2022-09-09T00:15:35;99347.81;;;18.76;80.95
12963;BME280;6546;49.882;8.666;2022-09-09T00:18:13;99346.84;;;18.79;80.29
12963;BME280;6546;49.882;8.666;2022-09-09T00:20:46;99347.94;;;18.73;80.02
12963;BME280;6546;49.882;8.666;2022-09-09T00:23:20;99342.69;;;18.73;79.61
12963;BME280;6546;49.882;8.666;2022-09-09T00:25:57;99346.25;;;18.72;80.11
12963;BME280;6546;49.882;8.666;2022-09-09T00:28:28;99328.81;;;18.71;79.64
12963;BME280;6546;49.882;8.666;2022-09-09T00:30:59;99341.84;;;18.73;79.82
12963;BME280;6546;49.882;8.666;2022-09-09T00:33:34;99334.00;;;18.73;79.57
12963;BME280;6546;49.882;8.666;2022-09-09T00:36:01;99339.38;;;18.68;82.72
12963;BME280;6546;49.882;8.666;2022-09-09T00:38:33;99339.41;;;18.66;80.95
12963;BME280;6546;49.882;8.666;2022-09-09T00:41:09;99343.78;;;18.67;82.42
12963;BME280;6546;49.882;8.666;2022-09-09T00:43:40;99343.78;;;18.67;83.25
12963;BME280;6546;49.882;8.666;2022-09-09T00:46:20;99344.53;;;18.71;81.83
12963;BME280;6546;49.882;8.666;2022-09-09T00:48:58;99348.75;;;18.75;82.74
12963;BME280;6546;49.882;8.666;2022-09-09T00:51:36;99345.31;;;18.73;82.38
12963;BME280;6546;49.882;8.666;2022-09-09T00:54:17;99356.47;;;18.78;82.32
12963;BME280;6546;49.882;8.666;2022-09-09T00:56:57;99344.91;;;18.84;81.10
12963;BME280;6546;49.882;8.666;2022-09-09T00:59:33;99357.94;;;18.85;79.70
12963;BME280;6546;49.882;8.666;2022-09-09T01:02:07;99351.84;;;18.85;80.06
12963;BME280;6546;49.882;8.666;2022-09-09T01:04:40;99353.63;;;18.84;80.06
12963;BME280;6546;49.882;8.666;2022-09-09T01:07:16;99351.97;;;18.82;80.34
12963;BME280;6546;49.882;8.666;2022-09-09T01:09:51;99340.63;;;18.81;82.06
12963;BME280;6546;49.882;8.666;2022-09-09T01:12:25;99336.16;;;18.83;81.31
12963;BME280;6546;49.882;8.666;2022-09-09T01:15:03;99337.28;;;18.78;80.88
12963;BME280;6546;49.882;8.666;2022-09-09T01:17:32;99335.38;;;18.81;80.56
12963;BME280;6546;49.882;8.666;2022-09-09T01:20:09;99336.34;;;18.79;80.80
12963;BME280;6546;49.882;8.666;2022-09-09T01:22:44;99343.06;;;18.86;80.17
12963;BME280;6546;49.882;8.666;2022-09-09T01:25:56;99330.88;;;18.85;79.12
12963;BME280;6546;49.882;8.666;2022-09-09T01:28:29;99330.91;;;18.83;79.11
12963;BME280;6546;49.882;8.666;2022-09-09T01:30:58;99337.94;;;18.83;79.13
12963;BME280;6546;49.882;8.666;2022-09-09T01:33:25;99333.44;;;18.86;78.48
12963;BME280;6546;49.882;8.666;2022-09-09T01:35:55;99326.97;;;18.95;78.35
12963;BME280;6546;49.882;8.666;2022-09-09T01:38:24;99332.66;;;18.84;78.50
12963;BME280;6546;49.882;8.666;2022-09-09T01:40:52;99331.97;;;18.79;79.82
12963;BME280;6546;49.882;8.666;2022-09-09T01:43:21;99330.16;;;18.81;79.14
12963;BME280;6546;49.882;8.666;2022-09-09T01:45:51;99324.28;;;18.75;81.05
12963;BME280;6546;49.882;8.666;2022-09-09T01:48:21;99333.28;;;18.67;82.99
12963;BME280;6546;49.882;8.666;2022-09-09T01:50:48;99326.41;;;18.65;82.54
12963;BME280;6546;49.882;8.666;2022-09-09T01:53:17;99329.13;;;18.62;81.96
12963;BME280;6546;49.882;8.666;2022-09-09T01:55:48;99325.84;;;18.57;83.26
12963;BME280;6546;49.882;8.666;2022-09-09T01:58:31;99332.13;;;18.53;84.34
12963;BME280;6546;49.882;8.666;2022-09-09T02:01:03;99328.47;;;18.57;82.57
12963;BME280;6546;49.882;8.666;2022-09-09T02:03:32;99331.09;;;18.57;81.95
12963;BME280;6546;49.882;8.666;2022-09-09T02:06:05;99325.72;;;18.60;81.42
12963;BME280;6546;49.882;8.666;2022-09-09T02:08:43;99324.16;;;18.56;81.97
12963;BME280;6546;49.882;8.666;2022-09-09T02:11:13;99329.75;;;18.68;80.99
12963;BME280;6546;49.882;8.666;2022-09-09T02:13:44;99322.81;;;18.67;80.37
12963;BME280;6546;49.882;8.666;2022-09-09T02:16:14;99329.28;;;18.59;80.67
12963;BME280;6546;49.882;8.666;2022-09-09T02:18:47;99336.44;;;18.54;80.95
12963;BME280;6546;49.882;8.666;2022-09-09T02:21:17;99333.50;;;18.61;81.14
12963;BME280;6546;49.882;8.666;2022-09-09T02:23:47;99332.94;;;18.55;80.94
12963;BME280;6546;49.882;8.666;2022-09-09T02:26:18;99334.38;;;18.62;81.07
12963;BME280;6546;49.882;8.666;2022-09-09T02:28:49;99336.22;;;18.60;81.28
12963;BME280;6546;49.882;8.666;2022-09-09T02:31:19;99343.25;;;18.58;81.10
12963;BME280;6546;49.882;8.666;2022-09-09T02:33:50;99352.03;;;18.57;81.13
12963;BME280;6546;49.882;8.666;2022-09-09T02:36:19;99350.22;;;18.59;81.37
12963;BME280;6546;49.882;8.666;2022-09-09T02:38:47;99345.00;;;18.59;81.27
12963;BME280;6546;49.882;8.666;2022-09-09T02:41:19;99344.63;;;18.68;80.28
12963;BME280;6546;49.882;8.666;2022-09-09T02:43:49;99350.63;;;18.72;80.40
12963;BME280;6546;49.882;8.666;2022-09-09T02:46:27;99352.41;;;18.71;80.23
12963;BME280;6546;49.882;8.666;2022-09-09T02:49:00;99343.69;;;18.69;80.21
12963;BME280;6546;49.882;8.666;2022-09-09T02:51:33;99337.69;;;18.67;80.46
12963;BME280;6546;49.882;8.666;2022-09-09T02:54:08;99337.81;;;18.64;80.70
12963;BME280;6546;49.882;8.666;2022-09-09T02:56:40;99338.75;;;18.61;81.29
12963;BME280;6546;49.882;8.666;2022-09-09T02:59:09;99341.19;;;18.66;80.59
12963;BME280;6546;49.882;8.666;2022-09-09T03:01:37;99339.38;;;18.68;79.94
12963;BME280;6546;49.882;8.666;2022-09-09T03:04:05;99339.59;;;18.62;80.05
12963;BME280;6546;49.882;8.666;2022-09-09T03:06:32;99338.75;;;18.61;80.65
12963;BME280;6546;49.882;8.666;2022-09-09T03:08:58;99347.63;;;18.59;80.98
12963;BME280;6546;49.882;8.666;2022-09-09T03:11:27;99347.53;;;18.60;80.45
12963;BME280;6546;49.882;8.666;2022-09-09T03:13:54;99345.09;;;18.56;80.75
12963;BME280;6546;49.882;8.666;2022-09-09T03:16:22;99341.66;;;18.54;81.28
12963;BME280;6546;49.882;8.666;2022-09-09T03:18:49;99342.69;;;18.50;81.88
12963;BME280;6546;49.882;8.666;2022-09-09T03:21:15;99339.56;;;18.41;82.98
12963;BME280;6546;49.882;8.666;2022-09-09T03:23:42;99345.56;;;18.43;82.53
12963;BME280;6546;49.882;8.666;2022-09-09T03:26:10;99349.16;;;18.41;83.97
12963;BME280;6546;49.882;8.666;2022-09-09T03:28:37;99352.69;;;18.40;84.28
12963;BME280;6546;49.882;8.666;2022-09-09T03:31:05;99351.72;;;18.42;83.10
12963;BME280;6546;49.882;8.666;2022-09-09T03:33:36;99349.22;;;18.39;82.97
12963;BME280;6546;49.882;8.666;2022-09-09T03:36:03;99351.06;;;18.37;83.42
12963;BME280;6546;49.882;8.666;2022-09-09T03:38:30;99344.91;;;18.38;82.92
12963;BME280;6546;49.882;8.666;2022-09-09T03:40:57;99353.72;;;18.36;83.79
12963;BME280;6546;49.882;8.666;2022-09-09T03:43:24;99348.59;;;18.33;84.25
12963;BME280;6546;49.882;8.666;2022-09-09T03:45:52;99358.09;;;18.35;83.77
12963;BME280;6546;49.882;8.666;2022-09-09T03:48:20;99355.50;;;18.35;82.50
12963;BME280;6546;49.882;8.666;2022-09-09T03:50:50;99359.06;;;18.33;83.46
12963;BME280;6546;49.882;8.666;2022-09-09T03:53:19;99356.63;;;18.28;84.09
12963;BME280;6546;49.882;8.666;2022-09-09T03:55:46;99348.84;;;18.27;84.07
12963;BME280;6546;49.882;8.666;2022-09-09T03:58:14;99348.75;;;18.28;83.82
12963;BME280;6546;49.882;8.666;2022-09-09T04:00:43;99343.41;;;18.31;83.13
12963;BME280;6546;49.882;8.666;2022-09-09T04:03:13;99347.13;;;18.26;83.32
12963;BME280;6546;49.882;8.666;2022-09-09T04:05:40;99346.50;;;18.19;85.18
12963;BME280;6546;49.882;8.666;2022-09-09T04:08:08;99333.66;;;18.13;85.16
12963;BME280;6546;49.882;8.666;2022-09-09T04:10:36;99337.22;;;18.10;85.71
12963;BME280;6546;49.882;8.666;2022-09-09T04:13:03;99336.19;;;18.14;85.10
12963;BME280;6546;49.882;8.666;2022-09-09T04:15:30;99337.19;;;18.12;84.82
12963;BME280;6546;49.882;8.666;2022-09-09T04:17:56;99341.63;;;18.10;84.98
12963;BME280;6546;49.882;8.666;2022-09-09T04:20:23;99344.28;;;18.08;86.82
12963;BME280;6546;49.882;8.666;2022-09-09T04:22:50;99332.84;;;18.11;86.26
12963;BME280;6546;49.882;8.666;2022-09-09T04:25:17;99335.34;;;18.14;85.11
12963;BME280;6546;49.882;8.666;2022-09-09T04:27:44;99337.97;;;18.14;85.79
12963;BME280;6546;49.882;8.666;2022-09-09T04:30:11;99334.22;;;18.21;84.63
12963;BME280;6546;49.882;8.666;2022-09-09T04:32:38;99333.31;;;18.22;84.25
12963;BME280;6546;49.882;8.666;2022-09-09T04:35:05;99332.50;;;18.20;83.80
12963;BME280;6546;49.882;8.666;2022-09-09T04:37:31;99331.81;;;18.15;84.85
12963;BME280;6546;49.882;8.666;2022-09-09T04:39:58;99327.59;;;18.11;84.60
12963;BME280;6546;49.882;8.666;2022-09-09T04:42:29;99330.97;;;18.14;84.19
12963;BME280;6546;49.882;8.666;2022-09-09T04:44:55;99336.28;;;18.13;84.16
12963;BME280;6546;49.882;8.666;2022-09-09T04:47:22;99327.78;;;18.06;85.84
12963;BME280;6546;49.882;8.666;2022-09-09T04:49:48;99332.97;;;18.08;85.28
12963;BME280;6546;49.882;8.666;2022-09-09T04:52:15;99334.78;;;18.06;85.71
12963;BME280;6546;49.882;8.666;2022-09-09T04:54:42;99341.97;;;18.01;85.23
12963;BME280;6546;49.882;8.666;2022-09-09T04:57:10;99339.38;;;17.99;84.54
12963;BME280;6546;49.882;8.666;2022-09-09T04:59:38;99347.19;;;18.01;85.08
12963;BME280;6546;49.882;8.666;2022-09-09T05:02:05;99349.06;;;17.97;84.56
12963;BME280;6546;49.882;8.666;2022-09-09T05:04:32;99349.06;;;17.97;84.90
12963;BME280;6546;49.882;8.666;2022-09-09T05:06:59;99350.81;;;17.97;84.57
12963;BME280;6546;49.882;8.666;2022-09-09T05:09:26;99354.47;;;17.92;84.59
12963;BME280;6546;49.882;8.666;2022-09-09T05:11:53;99357.75;;;17.98;84.14
12963;BME280;6546;49.882;8.666;2022-09-09T05:14:20;99359.59;;;17.95;84.22
12963;BME280;6546;49.882;8.666;2022-09-09T05:16:47;99369.94;;;17.99;83.81
12963;BME280;6546;49.882;8.666;2022-09-09T05:19:15;99375.97;;;18.01;84.21
12963;BME280;6546;49.882;8.666;2022-09-09T05:21:44;99377.69;;;18.02;83.99
12963;BME280;6546;49.882;8.666;2022-09-09T05:24:11;99375.06;;;18.02;83.87
12963;BME280;6546;49.882;8.666;2022-09-09T05:26:37;99378.59;;;18.01;84.08
12963;BME280;6546;49.882;8.666;2022-09-09T05:29:04;99374.03;;;18.06;83.67
12963;BME280;6546;49.882;8.666;2022-09-09T05:31:31;99385.34;;;18.08;83.16
12963;BME280;6546;49.882;8.666;2022-09-09T05:33:59;99395.81;;;18.08;83.24
12963;BME280;6546;49.882;8.666;2022-09-09T05:36:26;99396.00;;;18.02;83.26
12963;BME280;6546;49.882;8.666;2022-09-09T05:38:52;99404.78;;;18.01;83.01
12963;BME280;6546;49.882;8.666;2022-09-09T05:41:20;99401.16;;;18.05;83.75
12963;BME280;6546;49.882;8.666;2022-09-09T05:43:48;99400.28;;;18.04;83.60
12963;BME280;6546;49.882;8.666;2022-09-09T05:46:16;99397.53;;;18.07;83.19
12963;BME280;6546;49.882;8.666;2022-09-09T05:48:45;99407.75;;;18.15;83.21
12963;BME280;6546;49.882;8.666;2022-09-09T05:51:15;99408.94;;;18.06;82.97
12963;BME280;6546;49.882;8.666;2022-09-09T05:53:43;99404.81;;;17.99;83.51
12963;BME280;6546;49.882;8.666;2022-09-09T05:56:11;99410.88;;;18.01;83.37
12963;BME280;6546;49.882;8.666;2022-09-09T05:58:39;99408.31;;;18.00;83.80
12963;BME280;6546;49.882;8.666;2022-09-09T06:01:10;99416.44;;;17.92;84.65
12963;BME280;6546;49.882;8.666;2022-09-09T06:03:38;99411.72;;;18.02;84.96
12963;BME280;6546;49.882;8.666;2022-09-09T06:06:07;99415.00;;;18.07;83.88
12963;BME280;6546;49.882;8.666;2022-09-09T06:08:36;99417.81;;;18.02;84.51
12963;BME280;6546;49.882;8.666;2022-09-09T06:11:05;99416.50;;;18.14;84.14
12963;BME280;6546;49.882;8.666;2022-09-09T06:13:32;99418.34;;;18.12;83.61
12963;BME280;6546;49.882;8.666;2022-09-09T06:15:58;99412.94;;;18.16;83.21
12963;BME280;6546;49.882;8.666;2022-09-09T06:18:26;99415.59;;;18.15;83.57
12963;BME280;6546;49.882;8.666;2022-09-09T06:20:54;99414.69;;;18.16;83.05
12963;BME280;6546;49.882;8.666;2022-09-09T06:23:21;99413.66;;;18.20;83.51
12963;BME280;6546;49.882;8.666;2022-09-09T06:25:49;99407.09;;;18.33;83.15
12963;BME280;6546;49.882;8.666;2022-09-09T06:28:16;99406.09;;;18.36;82.88
12963;BME280;6546;49.882;8.666;2022-09-09T06:30:43;99413.69;;;18.43;82.09
12963;BME280;6546;49.882;8.666;2022-09-09T06:33:09;99398.88;;;18.42;82.50
12963;BME280;6546;49.882;8.666;2022-09-09T06:35:36;99404.06;;;18.44;82.58
12963;BME280;6546;49.882;8.666;2022-09-09T06:38:03;99409.19;;;18.47;82.70
12963;BME280;6546;49.882;8.666;2022-09-09T06:40:33;99412.09;;;18.63;81.78
12963;BME280;6546;49.882;8.666;2022-09-09T06:43:01;99423.44;;;18.62;81.77
12963;BME280;6546;49.882;8.666;2022-09-09T06:45:28;99429.78;;;18.56;81.90
12963;BME280;6546;49.882;8.666;2022-09-09T06:47:55;99423.59;;;18.59;81.87
12963;BME280;6546;49.882;8.666;2022-09-09T06:50:22;99423.44;;;18.62;81.69
12963;BME280;6546;49.882;8.666;2022-09-09T06:52:49;99419.06;;;18.62;81.94
12963;BME280;6546;49.882;8.666;2022-09-09T06:55:15;99424.31;;;18.62;81.97
12963;BME280;6546;49.882;8.666;2022-09-09T06:57:43;99425.03;;;18.66;81.70
12963;BME280;6546;49.882;8.666;2022-09-09T07:00:12;99430.00;;;18.75;81.63
12963;BME280;6546;49.882;8.666;2022-09-09T07:02:39;99429.41;;;18.67;81.62
12963;BME280;6546;49.882;8.666;2022-09-09T07:05:07;99429.28;;;18.70;81.56
12963;BME280;6546;49.882;8.666;2022-09-09T07:07:33;99417.78;;;18.74;82.00
12963;BME280;6546;49.882;8.666;2022-09-09T07:10:00;99416.00;;;18.75;81.24
12963;BME280;6546;49.882;8.666;2022-09-09T07:12:28;99419.81;;;18.66;81.64
12963;BME280;6546;49.882;8.666;2022-09-09T07:14:54;99419.63;;;18.72;81.89
12963;BME280;6546;49.882;8.666;2022-09-09T07:17:22;99414.47;;;18.69;81.90
12963;BME280;6546;49.882;8.666;2022-09-09T07:19:49;99420.63;;;18.68;81.60
12963;BME280;6546;49.882;8.666;2022-09-09T07:22:15;99425.19;;;18.63;82.44
12963;BME280;6546;49.882;8.666;2022-09-09T07:24:42;99426.06;;;18.62;82.18
12963;BME280;6546;49.882;8.666;2022-09-09T07:27:10;99427.84;;;18.61;82.04
12963;BME280;6546;49.882;8.666;2022-09-09T07:29:36;99430.44;;;18.63;82.04
12963;BME280;6546;49.882;8.666;2022-09-09T07:32:03;99432.97;;;18.64;82.65
12963;BME280;6546;49.882;8.666;2022-09-09T07:34:32;99433.09;;;18.61;82.93
12963;BME280;6546;49.882;8.666;2022-09-09T07:36:59;99437.38;;;18.64;82.49
12963;BME280;6546;49.882;8.666;2022-09-09T07:39:25;99435.66;;;18.63;81.94
12963;BME280;6546;49.882;8.666;2022-09-09T07:41:52;99449.44;;;18.68;82.38
12963;BME280;6546;49.882;8.666;2022-09-09T07:44:21;99445.44;;;18.58;82.74
12963;BME280;6546;49.882;8.666;2022-09-09T07:46:48;99439.06;;;18.65;82.36
12963;BME280;6546;49.882;8.666;2022-09-09T07:49:15;99435.41;;;18.69;82.34
12963;BME280;6546;49.882;8.666;2022-09-09T07:51:46;99441.53;;;18.69;82.62
12963;BME280;6546;49.882;8.666;2022-09-09T07:54:15;99439.31;;;18.82;82.54
12963;BME280;6546;49.882;8.666;2022-09-09T07:56:42;99438.09;;;18.91;82.23
12963;BME280;6546;49.882;8.666;2022-09-09T07:59:09;99441.94;;;19.04;81.61
12963;BME280;6546;49.882;8.666;2022-09-09T08:01:38;99442.38;;;19.15;81.67
12963;BME280;6546;49.882;8.666;2022-09-09T08:04:07;99443.78;;;19.24;80.74
12963;BME280;6546;49.882;8.666;2022-09-09T08:06:38;99443.78;;;19.24;80.20
12963;BME280;6546;49.882;8.666;2022-09-09T08:09:07;99452.44;;;19.26;80.25
12963;BME280;6546;49.882;8.666;2022-09-09T08:11:35;99459.88;;;19.37;79.76
12963;BME280;6546;49.882;8.666;2022-09-09T08:14:02;99458.09;;;19.37;79.39
12963;BME280;6546;49.882;8.666;2022-09-09T08:16:32;99451.06;;;19.38;80.09
12963;BME280;6546;49.882;8.666;2022-09-09T08:18:58;99461.41;;;19.42;79.32
12963;BME280;6546;49.882;8.666;2022-09-09T08:21:26;99470.97;;;19.43;79.20
12963;BME280;6546;49.882;8.666;2022-09-09T08:23:55;99461.25;;;19.45;78.88
12963;BME280;6546;49.882;8.666;2022-09-09T08:26:24;99463.16;;;19.42;78.81
12963;BME280;6546;49.882;8.666;2022-09-09T08:28:53;99459.69;;;19.41;78.98
12963;BME280;6546;49.882;8.666;2022-09-09T08:31:23;99467.69;;;19.38;78.74
12963;BME280;6546;49.882;8.666;2022-09-09T08:33:50;99471.84;;;19.44;78.91
12963;BME280;6546;49.882;8.666;2022-09-09T08:36:18;99477.00;;;19.45;78.61
12963;BME280;6546;49.882;8.666;2022-09-09T08:38:47;99473.31;;;19.51;78.52
12963;BME280;6546;49.882;8.666;2022-09-09T08:41:51;99472.41;;;19.51;77.95
12963;BME280;6546;49.882;8.666;2022-09-09T08:44:32;99474.16;;;19.52;78.13
12963;BME280;6546;49.882;8.666;2022-09-09T08:47:09;99474.53;;;19.42;77.93
12963;BME280;6546;49.882;8.666;2022-09-09T08:49:58;99466.47;;;19.47;77.71
12963;BME280;6546;49.882;8.666;2022-09-09T08:52:30;99476.88;;;19.49;77.89
12963;BME280;6546;49.882;8.666;2022-09-09T08:55:05;99479.50;;;19.49;77.66
12963;BME280;6546;49.882;8.666;2022-09-09T08:57:40;99460.34;;;19.47;77.97
12963;BME280;6546;49.882;8.666;2022-09-09T09:00:09;99461.47;;;19.41;77.52
12963;BME280;6546;49.882;8.666;2022-09-09T09:02:42;99472.94;;;19.38;78.07
12963;BME280;6546;49.882;8.666;2022-09-09T09:05:19;99463.72;;;19.28;79.73
12963;BME280;6546;49.882;8.666;2022-09-09T09:07:57;99465.59;;;19.25;82.46
12963;BME280;6546;49.882;8.666;2022-09-09T09:10:35;99473.44;;;19.26;85.89
12963;BME280;6546;49.882;8.666;2022-09-09T09:13:13;99469.88;;;19.27;85.79
12963;BME280;6546;49.882;8.666;2022-09-09T09:15:42;99457.38;;;19.12;91.66
12963;BME280;6546;49.882;8.666;2022-09-09T09:18:12;99458.31;;;18.87;95.26
12963;BME280;6546;49.882;8.666;2022-09-09T09:20:50;99466.97;;;18.66;99.18
12963;BME280;6546;49.882;8.666;2022-09-09T09:23:22;99472.44;;;18.60;100.00
12963;BME280;6546;49.882;8.666;2022-09-09T09:25:52;99462.19;;;18.54;100.00
12963;BME280;6546;49.882;8.666;2022-09-09T09:28:25;99460.03;;;18.65;100.00
12963;BME280;6546;49.882;8.666;2022-09-09T09:30:55;99465.16;;;18.68;100.00
12963;BME280;6546;49.882;8.666;2022-09-09T09:33:27;99467.34;;;18.80;100.00
12963;BME280;6546;49.882;8.666;2022-09-09T09:35:58;99458.66;;;19.02;100.00
12963;BME280;6546;49.882;8.666;2022-09-09T09:38:26;99457.00;;;19.21;100.00
12963;BME280;6546;49.882;8.666;2022-09-09T09:40:55;99452.94;;;19.36;98.98
12963;BME280;6546;49.882;8.666;2022-09-09T09:43:26;99452.00;;;19.37;96.23
12963;BME280;6546;49.882;8.666;2022-09-09T09:45:59;99453.03;;;19.33;95.93
12963;BME280;6546;49.882;8.666;2022-09-09T09:48:27;99446.75;;;19.37;95.68
12963;BME280;6546;49.882;8.666;2022-09-09T09:50:55;99447.59;;;19.37;92.59
12963;BME280;6546;49.882;8.666;2022-09-09T09:53:25;99445.53;;;19.45;93.00
12963;BME280;6546;49.882;8.666;2022-09-09T09:55:58;99448.56;;;19.57;87.94
12963;BME280;6546;49.882;8.666;2022-09-09T09:58:27;99448.94;;;19.69;90.38
12963;BME280;6546;49.882;8.666;2022-09-09T10:00:56;99451.09;;;19.80;89.19
12963;BME280;6546;49.882;8.666;2022-09-09T10:03:27;99433.44;;;19.84;88.53
12963;BME280;6546;49.882;8.666;2022-09-09T10:05:54;99439.53;;;19.84;84.33
12963;BME280;6546;49.882;8.666;2022-09-09T10:08:23;99451.91;;;19.82;83.28
12963;BME280;6546;49.882;8.666;2022-09-09T10:11:12;99442.97;;;19.86;84.85
12963;BME280;6546;49.882;8.666;2022-09-09T10:13:54;99445.28;;;19.94;84.07
12963;BME280;6546;49.882;8.666;2022-09-09T10:16:32;99445.72;;;20.04;83.62
12963;BME280;6546;49.882;8.666;2022-09-09T10:19:08;99443.06;;;20.24;82.71
12963;BME280;6546;49.882;8.666;2022-09-09T10:24:46;99443.94;;;20.43;79.01
12963;BME280;6546;49.882;8.666;2022-09-09T10:27:20;99447.66;;;20.39;76.81
12963;BME280;6546;49.882;8.666;2022-09-09T10:30:16;99434.41;;;20.22;79.69
12963;BME280;6546;49.882;8.666;2022-09-09T10:32:48;99448.03;;;20.11;79.51
12963;BME280;6546;49.882;8.666;2022-09-09T10:35:25;99445.72;;;20.04;81.80
12963;BME280;6546;49.882;8.666;2022-09-09T10:38:09;99430.50;;;19.91;78.83
12963;BME280;6546;49.882;8.666;2022-09-09T10:40:43;99443.22;;;19.80;80.41
12963;BME280;6546;49.882;8.666;2022-09-09T10:43:20;99444.66;;;19.67;83.44
12963;BME280;6546;49.882;8.666;2022-09-09T10:46:01;99442.78;;;19.49;88.12
12963;BME280;6546;49.882;8.666;2022-09-09T10:48:53;99437.50;;;19.28;91.98
12963;BME280;6546;49.882;8.666;2022-09-09T10:51:33;99449.66;;;19.09;97.18
12963;BME280;6546;49.882;8.666;2022-09-09T10:54:14;99428.28;;;18.96;98.87
12963;BME280;6546;49.882;8.666;2022-09-09T10:56:51;99422.53;;;18.86;99.95
12963;BME280;6546;49.882;8.666;2022-09-09T10:59:25;99427.41;;;18.74;100.00
12963;BME280;6546;49.882;8.666;2022-09-09T11:01:57;99425.78;;;18.71;100.00
12963;BME280;6546;49.882;8.666;2022-09-09T11:04:28;99433.03;;;18.63;100.00
12963;BME280;6546;49.882;8.666;2022-09-09T11:07:00;99430.00;;;18.75;100.00
12963;BME280;6546;49.882;8.666;2022-09-09T11:09:33;99422.13;;;18.75;95.01
12963;BME280;6546;49.882;8.666;2022-09-09T11:12:03;99417.44;;;18.60;92.64
12963;BME280;6546;49.882;8.666;2022-09-09T11:14:33;99424.63;;;18.55;96.30
12963;BME280;6546;49.882;8.666;2022-09-09T11:17:08;99429.63;;;18.37;99.64
12963;BME280;6546;49.882;8.666;2022-09-09T11:19:39;99423.59;;;18.35;100.00
12963;BME280;6546;49.882;8.666;2022-09-09T11:22:15;99429.63;;;18.37;100.00
12963;BME280;6546;49.882;8.666;2022-09-09T11:24:46;99419.94;;;18.39;100.00
12963;BME280;6546;49.882;8.666;2022-09-09T11:27:19;99420.41;;;18.51;100.00
12963;BME280;6546;49.882;8.666;2022-09-09T11:30:15;99414.56;;;18.66;100.00
12963;BME280;6546;49.882;8.666;2022-09-09T11:33:00;99417.50;;;18.82;100.00
12963;BME280;6546;49.882;8.666;2022-09-09T11:35:38;99414.31;;;18.95;100.00
12963;BME280;6546;49.882;8.666;2022-09-09T11:38:18;99404.38;;;19.04;100.00
12963;BME280;6546;49.882;8.666;2022-09-09T11:40:46;99413.44;;;18.97;100.00
12963;BME280;6546;49.882;8.666;2022-09-09T11:43:18;99417.13;;;18.91;100.00
12963;BME280;6546;49.882;8.666;2022-09-09T11:45:51;99412.97;;;18.85;100.00
12963;BME280;6546;49.882;8.666;2022-09-09T11:48:27;99412.16;;;18.83;100.00
12963;BME280;6546;49.882;8.666;2022-09-09T11:51:00;99409.50;;;18.85;100.00
12963;BME280;6546;49.882;8.666;2022-09-09T11:53:30;99418.03;;;18.90;100.00
12963;BME280;6546;49.882;8.666;2022-09-09T11:56:03;99417.97;;;18.91;100.00
12963;BME280;6546;49.882;8.666;2022-09-09T11:58:39;99413.63;;;18.92;100.00
12963;BME280;6546;49.882;8.666;2022-09-09T12:01:25;99422.06;;;18.99;100.00
12963;BME280;6546;49.882;8.666;2022-09-09T12:04:05;99420.13;;;19.04;100.00
12963;BME280;6546;49.882;8.666;2022-09-09T12:06:42;99417.13;;;19.13;100.00
12963;BME280;6546;49.882;8.666;2022-09-09T12:09:18;99417.66;;;19.21;100.00
12963;BME280;6546;49.882;8.666;2022-09-09T12:11:46;99425.41;;;19.24;100.00
12963;BME280;6546;49.882;8.666;2022-09-09T12:14:20;99411.25;;;19.28;100.00
12963;BME280;6546;49.882;8.666;2022-09-09T12:16:48;99415.72;;;19.26;99.04
12963;BME280;6546;49.882;8.666;2022-09-09T12:19:21;99411.81;;;19.36;99.29
12963;BME280;6546;49.882;8.666;2022-09-09T12:21:53;99409.72;;;19.44;99.92
12963;BME280;6546;49.882;8.666;2022-09-09T12:24:28;99405.78;;;19.55;99.61
12963;BME280;6546;49.882;8.666;2022-09-09T12:27:03;99404.06;;;19.54;99.52
12963;BME280;6546;49.882;8.666;2022-09-09T12:29:38;99396.47;;;19.48;99.96
12963;BME280;6546;49.882;8.666;2022-09-09T12:32:10;99383.47;;;19.44;98.84
12963;BME280;6546;49.882;8.666;2022-09-09T12:34:41;99404.75;;;19.38;98.96
12963;BME280;6546;49.882;8.666;2022-09-09T12:37:15;99394.09;;;19.41;95.46
12963;BME280;6546;49.882;8.666;2022-09-09T12:39:47;99394.25;;;19.38;93.99
12963;BME280;6546;49.882;8.666;2022-09-09T12:42:17;99399.72;;;19.32;93.29
12963;BME280;6546;49.882;8.666;2022-09-09T12:44:51;99403.66;;;19.22;96.39
12963;BME280;6546;49.882;8.666;2022-09-09T12:47:20;99410.47;;;19.26;95.24
12963;BME280;6546;49.882;8.666;2022-09-09T12:49:49;99401.50;;;19.32;89.77
12963;BME280;6546;49.882;8.666;2022-09-09T12:52:22;99398.44;;;19.42;84.28
12963;BME280;6546;49.882;8.666;2022-09-09T12:54:52;99403.50;;;19.47;83.78
12963;BME280;6546;49.882;8.666;2022-09-09T12:57:19;99400.31;;;19.61;82.89
12963;BME280;6546;49.882;8.666;2022-09-09T12:59:49;99387.66;;;19.71;77.35
12963;BME280;6546;49.882;8.666;2022-09-09T13:02:21;99390.22;;;19.72;78.90
12963;BME280;6546;49.882;8.666;2022-09-09T13:04:49;99393.53;;;19.76;79.87
12963;BME280;6546;49.882;8.666;2022-09-09T13:07:17;99386.28;;;19.82;73.70
12963;BME280;6546;49.882;8.666;2022-09-09T13:09:45;99383.56;;;19.84;74.57
12963;BME280;6546;49.882;8.666;2022-09-09T13:12:15;99394.91;;;19.84;72.60
12963;BME280;6546;49.882;8.666;2022-09-09T13:14:43;99392.69;;;19.75;73.12
12963;BME280;6546;49.882;8.666;2022-09-09T13:17:22;99395.28;;;19.77;73.78
12963;BME280;6546;49.882;8.666;2022-09-09T13:19:51;99398.66;;;19.79;72.22
12963;BME280;6546;49.882;8.666;2022-09-09T13:22:29;99396.66;;;19.85;71.43
12963;BME280;6546;49.882;8.666;2022-09-09T13:24:59;99401.09;;;19.83;71.30
12963;BME280;6546;49.882;8.666;2022-09-09T13:27:30;99406.94;;;19.69;71.81
12963;BME280;6546;49.882;8.666;2022-09-09T13:29:57;99410.91;;;19.58;74.60
12963;BME280;6546;49.882;8.666;2022-09-09T13:32:25;99401.78;;;19.46;73.51